Brant, Michigan
Current Conditions -  °F | °C
As of 11:54 AM on Friday 28 Nov 2014 (Local Time) from KRNP Reporting Station
Broken Clouds Broken Clouds  
Wind Chill: 13°   Ceiling: 3200
Heat Index: 24°   Visibility: 10mi
Dew Point: 13°   Wind: 10mph
Humidity: 62%   Direction: 190°S
Pressure: 30.24"   Gusts: NA
Location:  43.26°N, 84.23°W
Report Text: KRNP 281654Z AUTO 19009KT 10SM BKN032 BKN110 M04/M11 A3024 RMK AO2 T10451107
Loading
Personal Weather Stations






























Interactive Weather Map New forecast layout! Learn more

10-Day Weather Forecast

Advertisements
Track Severe Weather on mobile